createdAt,value
2023-02-22T00:00:02.660Z,1011.2
2023-02-22T00:15:03.087Z,1011.0
2023-02-22T00:30:02.533Z,1011.0
2023-02-22T00:45:02.966Z,1010.9
2023-02-22T01:00:02.517Z,1010.9
2023-02-22T01:15:02.829Z,1010.7
2023-02-22T01:30:02.505Z,1010.5
2023-02-22T01:45:02.726Z,1010.3
2023-02-22T02:00:03.137Z,1010.1
2023-02-22T02:15:02.575Z,1010.0
2023-02-22T02:30:03.016Z,1009.7
2023-02-22T02:45:02.540Z,1009.7
2023-02-22T03:00:02.907Z,1009.6
2023-02-22T03:15:02.544Z,1009.5
2023-02-22T03:30:02.808Z,1009.3
2023-02-22T03:45:03.266Z,1009.3
2023-02-22T04:00:02.679Z,1009.2
2023-02-22T04:15:03.124Z,1009.2
2023-02-22T04:30:02.575Z,1009.1
2023-02-22T04:45:03.012Z,1009.0
2023-02-22T05:00:02.587Z,1008.9
2023-02-22T05:15:02.863Z,1008.9
2023-02-22T05:30:02.274Z,1008.9
2023-02-22T05:45:02.735Z,1008.9
2023-02-22T06:00:03.186Z,1008.6
2023-02-22T06:15:02.610Z,1008.8
2023-02-22T06:30:03.085Z,1008.6
2023-02-22T06:45:02.662Z,1008.7
2023-02-22T07:00:02.913Z,1008.6
2023-02-22T07:15:02.583Z,1008.6
2023-02-22T07:30:02.812Z,1008.6
2023-02-22T07:45:03.248Z,1008.5
2023-02-22T08:00:02.669Z,1008.5
2023-02-22T08:15:03.153Z,1008.4
2023-02-22T08:30:02.608Z,1008.3
2023-02-22T08:45:03.056Z,1008.3
2023-02-22T09:00:02.628Z,1008.2
2023-02-22T09:15:02.918Z,1008.2
2023-02-22T09:30:02.361Z,1008.2
2023-02-22T09:45:02.810Z,1007.7
2023-02-22T10:00:03.227Z,1007.7
2023-02-22T10:15:02.674Z,1007.7
2023-02-22T10:30:10.093Z,1007.6
2023-02-22T10:45:02.635Z,1007.5
2023-02-22T11:00:02.997Z,1007.5
2023-02-22T11:15:02.781Z,1007.6
2023-02-22T11:45:03.430Z,1007.1
2023-02-22T12:00:02.842Z,1006.8
2023-02-22T12:15:02.180Z,1006.6
2023-02-22T12:30:02.643Z,1006.6
2023-02-22T12:45:04.118Z,1006.3
2023-02-22T13:15:02.982Z,1006.2
2023-02-22T13:30:02.400Z,1006.2
2023-02-22T13:45:02.834Z,1006.1
2023-02-22T14:00:02.278Z,1006.2
2023-02-22T14:15:02.716Z,1006.0
2023-02-22T14:30:03.129Z,1006.1
2023-02-22T14:45:02.698Z,1005.9
2023-02-22T15:00:03.141Z,1005.9
2023-02-22T15:15:02.672Z,1005.9
2023-02-22T15:30:02.897Z,1005.9
2023-02-22T15:45:02.324Z,1005.6
2023-02-22T16:00:02.781Z,1005.9
2023-02-22T16:15:03.237Z,1006.0
2023-02-22T16:30:05.943Z,1005.9
2023-02-22T16:45:03.110Z,1006.0
2023-02-22T17:00:02.692Z,1005.9
2023-02-22T17:15:02.964Z,1006.1
2023-02-22T17:30:02.414Z,1006.2
2023-02-22T17:45:02.882Z,1006.2
2023-02-22T18:00:02.287Z,1006.2
2023-02-22T18:15:02.737Z,1006.3
2023-02-22T18:30:03.191Z,1006.4
2023-02-22T18:45:02.744Z,1006.4
2023-02-22T19:00:03.058Z,1006.2
2023-02-22T19:15:02.720Z,1006.3
2023-02-22T19:30:02.948Z,1006.3
2023-02-22T19:45:02.347Z,1006.4
2023-02-22T20:00:02.829Z,1006.4
2023-02-22T20:15:02.252Z,1006.4
2023-02-22T20:30:02.738Z,1006.4
2023-02-22T20:45:03.137Z,1006.6
2023-02-22T21:00:02.736Z,1006.6
2023-02-22T21:15:03.037Z,1006.7
2023-02-22T21:30:02.486Z,1006.8
2023-02-22T21:45:02.902Z,1006.8
2023-02-22T22:00:02.344Z,1006.8
2023-02-22T22:15:02.780Z,1006.9
2023-02-22T22:30:02.177Z,1006.9
2023-02-22T22:45:02.756Z,1007.0
2023-02-22T23:00:02.084Z,1007.0
2023-02-22T23:30:02.991Z,1007.1
2023-02-22T23:45:02.380Z,1006.9
